Time;durP1;ratioP1;P1;durP2;ratioP2;P2;SDS_P1;SDS_P2;PMS_P1;PMS_P2;Temp;Humidity;BMP_temperature;BMP_pressure;BME280_temperature;BME280_humidity;BME280_pressure;Samples;Min_cycle;Max_cycle;Signal;HPM_P1;HPM_P2
2022/04/12 00:41:15;;;;;;;0.10;0.10;;;;;;;;;;6196755;22;1320071;-85
2022/04/12 00:43:52;;;;;;;0.10;0.10;;;;;;;;;;6204458;23;20195;-86
2022/04/12 00:46:19;;;;;;;0.10;0.10;;;;;;;;;;6173491;23;20215;-86
2022/04/12 00:48:45;;;;;;;0.10;0.10;;;;;;;;;;6171636;23;20409;-84
2022/04/12 00:51:13;;;;;;;0.10;0.10;;;;;;;;;;6144188;23;20376;-85
2022/04/12 00:53:49;;;;;;;;;;;;;;;;;;;;;
2022/04/12 00:56:23;;;;;;;0.10;0.10;;;;;;;;;;6113939;23;20427;-85
2022/04/12 00:58:56;;;;;;;0.10;0.10;;;;;;;;;;6112946;23;20196;-84
2022/04/12 01:13:51;;;;;;;0.10;0.10;;;;;;;;;;5082214;27;1902188;-85
2022/04/12 01:16:24;;;;;;;0.17;0.17;;;;;;;;;;5071323;28;20247;-86
2022/04/12 01:18:50;;;;;;;0.10;0.10;;;;;;;;;;5039082;28;20235;-87
2022/04/12 01:21:19;;;;;;;0.17;0.17;;;;;;;;;;5019449;28;20311;-86
2022/04/12 01:23:59;;;;;;;0.20;0.20;;;;;;;;;;5019308;28;20216;-86
2022/04/12 01:26:26;;;;;;;0.10;0.10;;;;;;;;;;4998819;28;20593;-86
2022/04/12 01:28:52;;;;;;;0.10;0.10;;;;;;;;;;4999184;28;20396;-85
2022/04/12 01:31:19;;;;;;;0.10;0.10;;;;;;;;;;4988960;28;20267;-86
2022/04/12 01:33:45;;;;;;;0.10;0.10;;;;;;;;;;4999521;28;20250;-86
2022/04/12 01:36:11;;;;;;;0.10;0.10;;;;;;;;;;4967940;28;20618;-85
2022/04/12 01:38:38;;;;;;;0.10;0.10;;;;;;;;;;4941527;29;20580;-86
2022/04/12 01:41:05;;;;;;;0.30;0.30;;;;;;;;;;4931196;28;20426;-85
2022/04/12 01:43:32;;;;;;;0.10;0.10;;;;;;;;;;4903424;29;20337;-84
2022/04/12 01:45:58;;;;;;;0.10;0.10;;;;;;;;;;4907620;29;20244;-84
2022/04/12 01:48:25;;;;;;;0.10;0.10;;;;;;;;;;4949547;29;20244;-83
2022/04/12 01:50:52;;;;;;;0.10;0.10;;;;;;;;;;4937185;29;20300;-84
2022/04/12 01:53:21;;;;;;;0.20;0.20;;;;;;;;;;5016134;28;20269;-84
2022/04/12 01:55:47;;;;;;;0.13;0.13;;;;;;;;;;5025267;28;20240;-83
2022/04/12 01:58:15;;;;;;;0.10;0.10;;;;;;;;;;5059516;28;20439;-84
2022/04/12 02:00:44;;;;;;;0.17;0.17;;;;;;;;;;5047344;28;20305;-83
2022/04/12 02:03:11;;;;;;;0.10;0.10;;;;;;;;;;5059785;28;20205;-84
2022/04/12 02:05:37;;;;;;;0.10;0.10;;;;;;;;;;5050764;28;20252;-85
2022/04/12 02:08:05;;;;;;;0.20;0.20;;;;;;;;;;5071232;28;20205;-85
2022/04/12 02:10:32;;;;;;;0.10;0.10;;;;;;;;;;5051488;28;20249;-84
2022/04/12 02:12:58;;;;;;;0.10;0.10;;;;;;;;;;5072129;28;20223;-84
2022/04/12 02:15:27;;;;;;;0.10;0.10;;;;;;;;;;5052130;28;20205;-85
2022/04/12 02:17:54;;;;;;;0.10;0.10;;;;;;;;;;5073556;28;20221;-85
2022/04/12 02:20:22;;;;;;;0.10;0.10;;;;;;;;;;5051361;28;20439;-85
2022/04/12 02:22:49;;;;;;;0.10;0.10;;;;;;;;;;5073992;28;20294;-85
2022/04/12 02:25:15;;;;;;;0.10;0.10;;;;;;;;;;5037860;28;20400;-84
2022/04/12 02:27:41;;;;;;;0.17;0.17;;;;;;;;;;5060911;28;20207;-87
2022/04/12 02:30:09;;;;;;;0.10;0.10;;;;;;;;;;5036903;28;20301;-86
2022/04/12 02:32:37;;;;;;;0.20;0.20;;;;;;;;;;5061247;28;20232;-85
2022/04/12 02:35:06;;;;;;;0.10;0.10;;;;;;;;;;5046987;28;20494;-85
2022/04/12 02:37:32;;;;;;;0.10;0.10;;;;;;;;;;4998336;28;20298;-84
2022/04/12 02:39:59;;;;;;;0.17;0.17;;;;;;;;;;5026140;28;20379;-85
2022/04/12 02:42:25;;;;;;;0.10;0.10;;;;;;;;;;5015563;28;20239;-85
2022/04/12 02:44:51;;;;;;;0.10;0.10;;;;;;;;;;5026677;28;20236;-83
2022/04/12 02:47:18;;;;;;;0.10;0.10;;;;;;;;;;5013709;28;20238;-86
2022/04/12 02:49:47;;;;;;;0.10;0.10;;;;;;;;;;5027441;28;20300;-88
2022/04/12 02:52:17;;;;;;;0.17;0.17;;;;;;;;;;4997914;28;20238;-85
2022/04/12 02:54:43;;;;;;;0.17;0.17;;;;;;;;;;5027346;28;20261;-86
2022/04/12 02:57:10;;;;;;;0.20;0.20;;;;;;;;;;5011915;28;20545;-85
2022/04/12 02:59:36;;;;;;;0.20;0.20;;;;;;;;;;5026982;28;20203;-84
2022/04/12 03:02:03;;;;;;;0.20;0.20;;;;;;;;;;5011753;28;20249;-88
2022/04/12 03:04:29;;;;;;;0.20;0.20;;;;;;;;;;5027091;28;20241;-85
2022/04/12 03:06:57;;;;;;;0.10;0.10;;;;;;;;;;4999324;28;20253;-86
2022/04/12 03:09:23;;;;;;;0.10;0.10;;;;;;;;;;5025470;28;20428;-83
2022/04/12 03:11:50;;;;;;;0.10;0.10;;;;;;;;;;5000597;28;20254;-84
2022/04/12 03:14:16;;;;;;;0.10;0.10;;;;;;;;;;5023532;28;20224;-84
2022/04/12 03:16:43;;;;;;;0.10;0.10;;;;;;;;;;5001475;28;20241;-83
2022/04/12 03:19:09;;;;;;;0.20;0.20;;;;;;;;;;5022011;28;20206;-83
2022/04/12 03:21:35;;;;;;;0.10;0.10;;;;;;;;;;5002755;28;20247;-83
2022/04/12 03:24:04;;;;;;;0.20;0.20;;;;;;;;;;5020922;28;20271;-84
2022/04/12 03:26:30;;;;;;;0.20;0.20;;;;;;;;;;5002530;28;20586;-85
2022/04/12 03:28:56;;;;;;;0.10;0.10;;;;;;;;;;5019878;28;20269;-83
2022/04/12 03:31:23;;;;;;;0.10;0.10;;;;;;;;;;5004299;28;20244;-84
2022/04/12 03:33:49;;;;;;;0.20;0.20;;;;;;;;;;5018722;28;20225;-84
2022/04/12 03:36:16;;;;;;;0.10;0.10;;;;;;;;;;5006654;28;20323;-83
2022/04/12 03:38:48;;;;;;;0.20;0.20;;;;;;;;;;5025320;28;20206;-84
2022/04/12 03:41:18;;;;;;;0.20;0.20;;;;;;;;;;5004598;28;20242;-82
2022/04/12 03:43:44;;;;;;;0.20;0.20;;;;;;;;;;5001249;28;20356;-82
2022/04/12 03:46:11;;;;;;;0.13;0.13;;;;;;;;;;5005211;28;20307;-83
2022/04/12 03:48:37;;;;;;;0.17;0.17;;;;;;;;;;5016937;28;20549;-84
2022/04/12 03:51:03;;;;;;;0.20;0.20;;;;;;;;;;5006285;28;20493;-83
2022/04/12 03:53:30;;;;;;;0.20;0.20;;;;;;;;;;5015642;28;20218;-83
2022/04/12 03:55:56;;;;;;;0.10;0.10;;;;;;;;;;5007698;28;20243;-82
2022/04/12 03:58:26;;;;;;;0.20;0.20;;;;;;;;;;5014265;28;20237;-83
2022/04/12 04:01:14;;;;;;;0.10;0.10;;;;;;;;;;4988313;28;20247;-84
2022/04/12 04:03:40;;;;;;;0.10;0.10;;;;;;;;;;4944108;29;20211;-83
2022/04/12 04:06:07;;;;;;;0.20;0.20;;;;;;;;;;4942884;28;20248;-83
2022/04/12 04:08:33;;;;;;;0.20;0.20;;;;;;;;;;4963467;29;20235;-84
2022/04/12 04:10:59;;;;;;;0.20;0.20;;;;;;;;;;4953728;28;20276;-83
2022/04/12 04:13:30;;;;;;;0.20;0.20;;;;;;;;;;4963512;29;20331;-85
2022/04/12 04:15:56;;;;;;;0.20;0.20;;;;;;;;;;4937868;29;20263;-84
2022/04/12 04:18:23;;;;;;;0.20;0.20;;;;;;;;;;4964187;29;20240;-85
2022/04/12 04:20:50;;;;;;;0.10;0.10;;;;;;;;;;4951742;28;20245;-84
2022/04/12 04:23:16;;;;;;;0.20;0.20;;;;;;;;;;4964249;29;20228;-84
2022/04/12 04:25:43;;;;;;;0.20;0.20;;;;;;;;;;4953614;28;20243;-84
2022/04/12 04:28:12;;;;;;;0.20;0.20;;;;;;;;;;4964240;29;20204;-83
2022/04/12 04:30:44;;;;;;;0.20;0.20;;;;;;;;;;4954010;28;20394;-83
2022/04/12 04:33:11;;;;;;;0.20;0.20;;;;;;;;;;4963675;29;20231;-83
2022/04/12 04:35:37;;;;;;;0.20;0.20;;;;;;;;;;4953555;28;20238;-82
2022/04/12 04:38:03;;;;;;;0.10;0.10;;;;;;;;;;4963309;29;20207;-83
2022/04/12 04:40:30;;;;;;;0.20;0.20;;;;;;;;;;4953238;28;20243;-83
2022/04/12 04:42:56;;;;;;;0.10;0.10;;;;;;;;;;4963003;29;20196;-83
2022/04/12 04:45:25;;;;;;;0.20;0.20;;;;;;;;;;4953231;28;20215;-83
2022/04/12 04:47:53;;;;;;;0.13;0.13;;;;;;;;;;4962974;28;20230;-82
2022/04/12 04:50:20;;;;;;;0.20;0.20;;;;;;;;;;4952876;28;20254;-84
2022/04/12 04:52:47;;;;;;;0.20;0.20;;;;;;;;;;4992896;28;20533;-83
2022/04/12 04:55:13;;;;;;;0.10;0.10;;;;;;;;;;5033316;28;20206;-85
2022/04/12 04:57:40;;;;;;;0.20;0.20;;;;;;;;;;5042305;28;20383;-83
2022/04/12 05:00:07;;;;;;;0.20;0.20;;;;;;;;;;5033319;28;20262;-83
2022/04/12 05:02:33;;;;;;;0.20;0.20;;;;;;;;;;5042055;28;20204;-81
2022/04/12 05:05:04;;;;;;;0.13;0.13;;;;;;;;;;5043438;28;20425;-82
2022/04/12 05:07:31;;;;;;;0.20;0.20;;;;;;;;;;5015585;28;20216;-83
2022/04/12 05:09:58;;;;;;;0.20;0.20;;;;;;;;;;5043640;28;20222;-82
2022/04/12 05:12:24;;;;;;;0.10;0.10;;;;;;;;;;5048214;28;20315;-83
2022/04/12 05:14:51;;;;;;;0.20;0.20;;;;;;;;;;5043352;28;20243;-84
2022/04/12 05:17:23;;;;;;;0.10;0.10;;;;;;;;;;5048540;28;20255;-84
2022/04/12 05:19:50;;;;;;;0.10;0.10;;;;;;;;;;5043192;28;20197;-84
2022/04/12 05:22:18;;;;;;;0.20;0.20;;;;;;;;;;5048409;28;20619;-81
2022/04/12 05:24:44;;;;;;;0.20;0.20;;;;;;;;;;5043006;28;20445;-83
2022/04/12 05:27:10;;;;;;;0.20;0.20;;;;;;;;;;5045735;28;20273;-84
2022/04/12 05:29:40;;;;;;;0.20;0.20;;;;;;;;;;5043129;28;20240;-82
2022/04/12 05:32:07;;;;;;;0.20;0.20;;;;;;;;;;5048203;28;20238;-84
2022/04/12 05:34:33;;;;;;;0.10;0.10;;;;;;;;;;5042778;28;20286;-83
2022/04/12 05:37:00;;;;;;;0.20;0.20;;;;;;;;;;5047383;28;20592;-84
2022/04/12 05:39:28;;;;;;;0.20;0.20;;;;;;;;;;5043371;28;20211;-84
2022/04/12 05:41:54;;;;;;;0.20;0.20;;;;;;;;;;5046912;28;20241;-83
2022/04/12 05:44:21;;;;;;;0.20;0.20;;;;;;;;;;5044082;28;20197;-84
2022/04/12 05:46:50;;;;;;;0.30;0.30;;;;;;;;;;5045642;28;20297;-83
2022/04/12 05:49:16;;;;;;;0.20;0.20;;;;;;;;;;5045079;28;20218;-83
2022/04/12 05:51:43;;;;;;;0.20;0.20;;;;;;;;;;5045318;28;20255;-84
2022/04/12 05:54:09;;;;;;;0.20;0.20;;;;;;;;;;5045707;28;20461;-83
2022/04/12 05:56:37;;;;;;;0.10;0.10;;;;;;;;;;5044889;28;20314;-83
2022/04/12 05:59:06;;;;;;;0.10;0.10;;;;;;;;;;5049115;28;20210;-82
2022/04/12 06:01:32;;;;;;;0.20;0.20;;;;;;;;;;5047810;28;20246;-82
2022/04/12 06:03:58;;;;;;;0.10;0.10;;;;;;;;;;5051477;28;20204;-82
2022/04/12 06:06:27;;;;;;;0.17;0.17;;;;;;;;;;5048059;28;20470;-83
2022/04/12 06:08:54;;;;;;;0.10;0.10;;;;;;;;;;5053086;28;20580;-82
2022/04/12 06:11:21;;;;;;;0.10;0.10;;;;;;;;;;5047306;28;20250;-81
2022/04/12 06:13:48;;;;;;;0.20;0.20;;;;;;;;;;5053669;28;20380;-84
2022/04/12 06:16:15;;;;;;;0.20;0.20;;;;;;;;;;5045275;28;20269;-78
2022/04/12 06:18:43;;;;;;;0.20;0.20;;;;;;;;;;5052729;28;20208;-80
2022/04/12 06:21:10;;;;;;;0.10;0.10;;;;;;;;;;5044436;28;20255;-78
2022/04/12 06:24:00;;;;;;;0.20;0.20;;;;;;;;;;5054112;28;20210;-81
2022/04/12 06:27:12;;;;;;;;;;;;;;;;;;;;;
2022/04/12 06:29:41;;;;;;;0.10;0.10;;;;;;;;;;5049552;28;20228;-80
2022/04/12 06:32:20;;;;;;;0.20;0.20;;;;;;;;;;5053262;28;20443;-80
2022/04/12 06:34:47;;;;;;;0.20;0.20;;;;;;;;;;5065769;28;20528;-79
2022/04/12 06:37:37;;;;;;;0.10;0.10;;;;;;;;;;5049483;28;20301;-80
2022/04/12 06:40:07;;;;;;;0.10;0.10;;;;;;;;;;5066156;28;20409;-80
2022/04/12 06:42:51;;;;;;;0.10;0.10;;;;;;;;;;5037490;28;20206;-79
2022/04/12 06:45:27;;;;;;;0.10;0.10;;;;;;;;;;5054037;28;20196;-78
2022/04/12 06:51:12;;;;;;;0.10;0.10;;;;;;;;;;5023124;28;20242;-80
2022/04/12 06:56:27;;;;;;;0.10;0.10;;;;;;;;;;5013070;28;20299;-76
2022/04/12 06:59:18;;;;;;;;;;;;;;;;;;;;;
2022/04/12 07:05:07;;;;;;;0.10;0.10;;;;;;;;;;4952601;28;20557;-83
2022/04/12 07:10:30;;;;;;;0.10;0.10;;;;;;;;;;4908799;29;20567;-79
2022/04/12 07:13:10;;;;;;;0.10;0.10;;;;;;;;;;4926712;29;20206;-78
2022/04/12 07:15:39;;;;;;;0.10;0.10;;;;;;;;;;4916328;29;20253;-78
2022/04/12 07:18:14;;;;;;;0.07;0.07;;;;;;;;;;4926113;29;20213;-80
2022/04/12 07:35:56;;;;;;;0.00;0.00;;;;;;;;;;4999108;28;20254;-79
2022/04/12 10:09:31;;;;;;;0.00;0.00;;;;;;;;;;6285320;22;20445;-75
2022/04/12 10:11:59;;;;;;;0.00;0.00;;;;;;;;;;6293675;22;20216;-79
2022/04/12 10:14:25;;;;;;;0.00;0.00;;;;;;;;;;6287909;22;20182;-74
2022/04/12 10:16:52;;;;;;;0.00;0.00;;;;;;;;;;6292998;22;20212;-82
2022/04/12 10:19:19;;;;;;;0.00;0.00;;;;;;;;;;6290263;22;20182;-81
2022/04/12 10:25:25;;;;;;;0.10;0.10;;;;;;;;;;6203424;22;20173;-84
2022/04/12 10:31:12;;;;;;;0.00;0.00;;;;;;;;;;6198305;22;20210;-83
2022/04/12 10:40:11;;;;;;;0.00;0.00;;;;;;;;;;6164572;22;20561;-81
2022/04/12 10:45:35;;;;;;;0.00;0.00;;;;;;;;;;6174683;23;20244;-79
2022/04/12 10:48:01;;;;;;;0.00;0.00;;;;;;;;;;6192903;23;20180;-75
2022/04/12 10:50:28;;;;;;;0.00;0.00;;;;;;;;;;6177601;23;20219;-75
2022/04/12 10:52:54;;;;;;;0.00;0.00;;;;;;;;;;6192240;23;20256;-71
2022/04/12 10:55:22;;;;;;;0.00;0.00;;;;;;;;;;6177837;23;20350;-76
2022/04/12 10:57:49;;;;;;;0.00;0.00;;;;;;;;;;6192785;23;20475;-82
2022/04/12 11:00:17;;;;;;;0.00;0.00;;;;;;;;;;6152536;23;20197;-77
2022/04/12 11:02:45;;;;;;;0.00;0.00;;;;;;;;;;6192088;23;20430;-74
2022/04/12 11:05:30;;;;;;;0.00;0.00;;;;;;;;;;6177737;23;20185;-72
2022/04/12 11:07:56;;;;;;;0.00;0.00;;;;;;;;;;6264569;22;20186;-71
2022/04/12 11:10:23;;;;;;;0.00;0.00;;;;;;;;;;6274650;22;20389;-71
2022/04/12 11:12:50;;;;;;;0.10;0.10;;;;;;;;;;6306992;22;20190;-71
2022/04/12 11:15:21;;;;;;;0.52;0.52;;;;;;;;;;6273535;22;20394;-69
2022/04/12 11:17:48;;;;;;;0.00;0.00;;;;;;;;;;6307503;22;20186;-70
2022/04/12 11:20:20;;;;;;;0.10;0.10;;;;;;;;;;6272131;22;20183;-71
2022/04/12 11:22:55;;;;;;;0.10;0.10;;;;;;;;;;6307924;22;20438;-71
2022/04/12 11:25:22;;;;;;;0.20;0.20;;;;;;;;;;6274156;22;20192;-70
2022/04/12 11:27:55;;;;;;;0.00;0.00;;;;;;;;;;6306836;22;20182;-70
2022/04/12 11:30:21;;;;;;;0.00;0.00;;;;;;;;;;6273919;22;20166;-74
2022/04/12 11:32:49;;;;;;;0.00;0.00;;;;;;;;;;6306728;22;20180;-73
2022/04/12 11:35:16;;;;;;;0.00;0.00;;;;;;;;;;6272218;22;20192;-74
2022/04/12 11:37:42;;;;;;;0.00;0.00;;;;;;;;;;6308045;22;20198;-75
2022/04/12 11:40:09;;;;;;;0.00;0.00;;;;;;;;;;6271126;22;20204;-74
2022/04/12 11:42:35;;;;;;;0.20;0.20;;;;;;;;;;6309108;22;20234;-73
2022/04/12 11:45:01;;;;;;;0.10;0.10;;;;;;;;;;6285539;22;20164;-72
2022/04/12 11:47:28;;;;;;;0.08;0.08;;;;;;;;;;6294592;22;20521;-74
2022/04/12 11:50:00;;;;;;;0.00;0.00;;;;;;;;;;6285341;22;20234;-72
2022/04/12 11:52:27;;;;;;;0.00;0.00;;;;;;;;;;6294518;22;20214;-72
2022/04/12 11:54:54;;;;;;;0.00;0.00;;;;;;;;;;6286104;22;20236;-70
2022/04/12 11:57:21;;;;;;;0.00;0.00;;;;;;;;;;6294380;22;20217;-74
2022/04/12 11:59:48;;;;;;;0.00;0.00;;;;;;;;;;6285463;22;20231;-75
2022/04/12 12:02:15;;;;;;;0.00;0.00;;;;;;;;;;6294521;22;20221;-74
2022/04/12 12:04:45;;;;;;;0.10;0.10;;;;;;;;;;6285233;22;20246;-75
2022/04/12 12:07:13;;;;;;;0.00;0.00;;;;;;;;;;6294588;22;20267;-77
2022/04/12 12:09:39;;;;;;;0.00;0.00;;;;;;;;;;6285514;22;20187;-74
2022/04/12 12:12:07;;;;;;;0.00;0.00;;;;;;;;;;6294198;22;20267;-76
2022/04/12 12:14:33;;;;;;;0.00;0.00;;;;;;;;;;6285972;22;20476;-75
2022/04/12 12:17:01;;;;;;;0.00;0.00;;;;;;;;;;6293032;22;20216;-75
2022/04/12 12:19:28;;;;;;;0.05;0.05;;;;;;;;;;6286677;22;20415;-76
2022/04/12 12:21:54;;;;;;;0.00;0.00;;;;;;;;;;6291989;22;20493;-79
2022/04/12 12:24:22;;;;;;;0.00;0.00;;;;;;;;;;6288474;22;20179;-76
2022/04/12 12:26:53;;;;;;;0.00;0.00;;;;;;;;;;6290593;22;20221;-77
2022/04/12 12:29:21;;;;;;;0.20;0.20;;;;;;;;;;6288900;22;20171;-76
2022/04/12 12:31:47;;;;;;;0.00;0.00;;;;;;;;;;6290597;22;20214;-77
2022/04/12 12:34:26;;;;;;;0.10;0.10;;;;;;;;;;6289362;22;20238;-75
2022/04/12 12:36:52;;;;;;;0.40;0.40;;;;;;;;;;6291389;22;20437;-76
2022/04/12 12:39:19;;;;;;;0.00;0.00;;;;;;;;;;6288375;22;20205;-75
2022/04/12 12:41:46;;;;;;;0.10;0.10;;;;;;;;;;6289768;22;20351;-74
2022/04/12 12:44:13;;;;;;;0.00;0.00;;;;;;;;;;6289637;22;20228;-76
2022/04/12 12:46:40;;;;;;;0.00;0.00;;;;;;;;;;6288861;22;20481;-75
2022/04/12 12:49:07;;;;;;;0.00;0.00;;;;;;;;;;6290495;22;20165;-74
2022/04/12 12:51:34;;;;;;;0.00;0.00;;;;;;;;;;6287564;22;20255;-76
2022/04/12 12:54:00;;;;;;;0.10;0.10;;;;;;;;;;6291919;22;20197;-75
2022/04/12 12:56:31;;;;;;;0.20;0.20;;;;;;;;;;6286120;22;20285;-75
2022/04/12 13:01:52;;;;;;;0.00;0.00;;;;;;;;;;5074818;28;20603;-75
2022/04/12 13:04:22;;;;;;;0.00;0.00;;;;;;;;;;5061775;28;20205;-76
2022/04/12 13:06:58;;;;;;;0.00;0.00;;;;;;;;;;5062798;28;20607;-76
2022/04/12 13:09:24;;;;;;;0.10;0.10;;;;;;;;;;5060623;28;20201;-76
2022/04/12 13:11:51;;;;;;;0.10;0.10;;;;;;;;;;5063154;28;20368;-75
2022/04/12 13:14:17;;;;;;;0.00;0.00;;;;;;;;;;5061641;28;20256;-77
2022/04/12 13:16:43;;;;;;;0.05;0.05;;;;;;;;;;5062054;28;20239;-75
2022/04/12 13:19:11;;;;;;;0.00;0.00;;;;;;;;;;5062427;28;20467;-75
2022/04/12 13:21:37;;;;;;;0.08;0.08;;;;;;;;;;5061079;28;20283;-74
2022/04/12 13:24:04;;;;;;;0.00;0.00;;;;;;;;;;5063131;28;20268;-76
2022/04/12 13:26:30;;;;;;;0.03;0.03;;;;;;;;;;5060367;28;20269;-76
2022/04/12 13:28:56;;;;;;;0.10;0.10;;;;;;;;;;5064101;28;20392;-75
2022/04/12 13:31:23;;;;;;;0.00;0.00;;;;;;;;;;5059441;28;20249;-76
2022/04/12 13:33:49;;;;;;;0.13;0.13;;;;;;;;;;5065012;28;20230;-75
2022/04/12 13:36:17;;;;;;;0.20;0.20;;;;;;;;;;5058100;28;20567;-78
2022/04/12 13:38:43;;;;;;;0.00;0.00;;;;;;;;;;5066298;28;20299;-76
2022/04/12 13:41:09;;;;;;;0.57;0.43;;;;;;;;;;5057717;28;20422;-76
2022/04/12 13:43:36;;;;;;;0.08;0.08;;;;;;;;;;5066603;28;20217;-76
2022/04/12 13:46:02;;;;;;;0.10;0.10;;;;;;;;;;5056340;28;20271;-75
2022/04/12 13:48:29;;;;;;;0.10;0.10;;;;;;;;;;5067146;28;20210;-76
2022/04/12 13:50:55;;;;;;;0.00;0.00;;;;;;;;;;5055301;28;20446;-75
2022/04/12 13:53:24;;;;;;;0.38;0.38;;;;;;;;;;5068210;28;20518;-75
2022/04/12 13:55:50;;;;;;;0.20;0.20;;;;;;;;;;5054785;28;20299;-77
2022/04/12 13:58:16;;;;;;;0.00;0.00;;;;;;;;;;5068315;28;20212;-76
2022/04/12 14:00:42;;;;;;;0.10;0.10;;;;;;;;;;5053222;28;20285;-77
2022/04/12 14:03:09;;;;;;;0.10;0.10;;;;;;;;;;5069649;28;20213;-76
2022/04/12 14:05:35;;;;;;;0.00;0.00;;;;;;;;;;5053026;28;20243;-77
2022/04/12 14:08:01;;;;;;;0.05;0.05;;;;;;;;;;5070626;28;20219;-77
2022/04/12 14:10:29;;;;;;;0.10;0.10;;;;;;;;;;5051495;28;20388;-76
2022/04/12 14:12:55;;;;;;;0.05;0.05;;;;;;;;;;5059645;28;20211;-76
2022/04/12 14:15:21;;;;;;;0.00;0.00;;;;;;;;;;5037566;28;20208;-77
2022/04/12 14:17:48;;;;;;;0.10;0.10;;;;;;;;;;5059293;28;20216;-78
2022/04/12 14:20:15;;;;;;;0.00;0.00;;;;;;;;;;5036531;28;20216;-79
2022/04/12 14:22:41;;;;;;;0.00;0.00;;;;;;;;;;5059637;28;20212;-76
2022/04/12 14:25:08;;;;;;;0.00;0.00;;;;;;;;;;5037283;28;20217;-76
2022/04/12 14:27:35;;;;;;;0.00;0.00;;;;;;;;;;5060874;28;20220;-77
2022/04/12 14:30:02;;;;;;;0.00;0.00;;;;;;;;;;5045631;28;20503;-76
2022/04/12 14:32:28;;;;;;;0.10;0.10;;;;;;;;;;5050737;28;20254;-75
2022/04/12 14:34:57;;;;;;;0.00;0.00;;;;;;;;;;5045535;28;20223;-76
2022/04/12 14:37:23;;;;;;;0.68;0.45;;;;;;;;;;5050739;28;20267;-75
2022/04/12 14:39:50;;;;;;;0.00;0.00;;;;;;;;;;5045729;28;20465;-76
2022/04/12 14:42:16;;;;;;;0.00;0.00;;;;;;;;;;5050311;28;20249;-76
2022/04/12 14:44:44;;;;;;;0.00;0.00;;;;;;;;;;5045188;28;20204;-76
2022/04/12 14:47:11;;;;;;;0.17;0.17;;;;;;;;;;5050248;28;20277;-76
2022/04/12 14:49:37;;;;;;;0.10;0.10;;;;;;;;;;5045177;28;20243;-76
2022/04/12 14:52:04;;;;;;;0.03;0.03;;;;;;;;;;5048405;28;20247;-76
2022/04/12 14:54:31;;;;;;;0.32;0.32;;;;;;;;;;5045724;28;20211;-76
2022/04/12 14:56:57;;;;;;;0.10;0.10;;;;;;;;;;5047932;28;20286;-75
2022/04/12 14:59:24;;;;;;;0.10;0.10;;;;;;;;;;5045724;28;20416;-75
2022/04/12 15:01:51;;;;;;;0.10;0.10;;;;;;;;;;5047960;28;20269;-78
2022/04/12 15:04:18;;;;;;;0.10;0.10;;;;;;;;;;5046692;28;20205;-75
2022/04/12 15:06:44;;;;;;;0.10;0.10;;;;;;;;;;5046105;28;20246;-73
2022/04/12 15:09:10;;;;;;;0.90;0.90;;;;;;;;;;5047356;28;20207;-73
2022/04/12 15:11:37;;;;;;;0.10;0.10;;;;;;;;;;5046407;28;20297;-77
2022/04/12 15:14:03;;;;;;;0.08;0.08;;;;;;;;;;5048278;28;20219;-73
2022/04/12 15:16:31;;;;;;;0.10;0.10;;;;;;;;;;5044930;28;20240;-73
2022/04/12 15:18:58;;;;;;;3.83;0.60;;;;;;;;;;5048854;28;20256;-75
2022/04/12 15:21:25;;;;;;;0.10;0.10;;;;;;;;;;5044531;28;20249;-75
2022/04/12 15:23:51;;;;;;;0.05;0.05;;;;;;;;;;5048444;28;20209;-77
2022/04/12 15:26:18;;;;;;;0.00;0.00;;;;;;;;;;5043302;28;20521;-74
2022/04/12 15:28:44;;;;;;;0.00;0.00;;;;;;;;;;5050205;28;20212;-68
2022/04/12 15:31:11;;;;;;;2.53;1.55;;;;;;;;;;5041943;28;20248;-68
2022/04/12 15:33:37;;;;;;;0.10;0.10;;;;;;;;;;5050892;28;20413;-69
2022/04/12 15:36:05;;;;;;;0.08;0.08;;;;;;;;;;5041004;28;20286;-68
2022/04/12 15:38:31;;;;;;;0.10;0.10;;;;;;;;;;5051291;28;20214;-70
2022/04/12 15:40:58;;;;;;;0.10;0.10;;;;;;;;;;5040416;28;20255;-68
2022/04/12 15:43:24;;;;;;;0.10;0.10;;;;;;;;;;5052332;28;20208;-67
2022/04/12 15:45:50;;;;;;;0.10;0.10;;;;;;;;;;5039222;28;20287;-72
2022/04/12 15:48:17;;;;;;;1.40;1.40;;;;;;;;;;5053343;28;20207;-68
2022/04/12 15:50:44;;;;;;;0.10;0.10;;;;;;;;;;5037980;28;20237;-68
2022/04/12 15:53:12;;;;;;;0.10;0.10;;;;;;;;;;5054044;28;20273;-68
2022/04/12 15:55:38;;;;;;;0.10;0.10;;;;;;;;;;5037366;28;20302;-68
2022/04/12 15:58:07;;;;;;;0.10;0.10;;;;;;;;;;5054546;28;20355;-68
2022/04/12 16:00:33;;;;;;;0.20;0.20;;;;;;;;;;5036461;28;20614;-71
2022/04/12 16:02:59;;;;;;;0.67;0.67;;;;;;;;;;5055000;28;20216;-68
2022/04/12 16:05:26;;;;;;;0.03;0.03;;;;;;;;;;5035840;28;20302;-70
2022/04/12 16:07:55;;;;;;;0.10;0.10;;;;;;;;;;5056129;28;20208;-69
2022/04/12 16:10:26;;;;;;;0.10;0.10;;;;;;;;;;5035091;28;20327;-68
2022/04/12 16:12:52;;;;;;;0.10;0.10;;;;;;;;;;5056100;28;20478;-71
2022/04/12 16:15:19;;;;;;;0.10;0.10;;;;;;;;;;5033900;28;20209;-70
2022/04/12 16:17:45;;;;;;;0.10;0.10;;;;;;;;;;5057529;28;20247;-70
2022/04/12 16:20:11;;;;;;;0.10;0.10;;;;;;;;;;5033659;28;20199;-67
2022/04/12 16:22:38;;;;;;;0.00;0.00;;;;;;;;;;5057828;28;20189;-69
2022/04/12 16:25:04;;;;;;;0.00;0.00;;;;;;;;;;5043076;28;20209;-68
2022/04/12 16:27:32;;;;;;;0.30;0.30;;;;;;;;;;5048216;28;20295;-69
2022/04/12 16:29:58;;;;;;;0.10;0.10;;;;;;;;;;5043113;28;20210;-69
2022/04/12 16:32:25;;;;;;;0.00;0.00;;;;;;;;;;5048476;28;20657;-69
2022/04/12 16:34:54;;;;;;;0.10;0.10;;;;;;;;;;5043786;28;20224;-76
2022/04/12 16:37:20;;;;;;;0.07;0.07;;;;;;;;;;5050104;28;20313;-74
2022/04/12 16:39:46;;;;;;;0.10;0.10;;;;;;;;;;5043121;28;20210;-73
2022/04/12 16:42:13;;;;;;;0.03;0.03;;;;;;;;;;5048024;28;20236;-71
2022/04/12 16:44:40;;;;;;;0.20;0.20;;;;;;;;;;5042944;28;20453;-74
2022/04/12 16:47:07;;;;;;;0.20;0.20;;;;;;;;;;5047759;28;20245;-74
2022/04/12 16:49:33;;;;;;;0.10;0.10;;;;;;;;;;5042568;28;20197;-75
2022/04/12 16:52:00;;;;;;;0.10;0.10;;;;;;;;;;5046963;28;20254;-75
2022/04/12 16:54:26;;;;;;;0.10;0.10;;;;;;;;;;5043421;28;20208;-75
2022/04/12 16:56:52;;;;;;;0.00;0.00;;;;;;;;;;5045907;28;20406;-70
2022/04/12 16:59:18;;;;;;;0.10;0.10;;;;;;;;;;5044343;28;20258;-69
2022/04/12 17:01:46;;;;;;;0.10;0.10;;;;;;;;;;5045388;28;20248;-72
2022/04/12 17:04:13;;;;;;;0.10;0.10;;;;;;;;;;5045476;28;20207;-70
2022/04/12 17:06:40;;;;;;;0.10;0.10;;;;;;;;;;5044529;28;20236;-71
2022/04/12 17:09:07;;;;;;;0.37;0.37;;;;;;;;;;5045657;28;20234;-69
2022/04/12 17:11:33;;;;;;;0.10;0.10;;;;;;;;;;5043391;28;20544;-70
2022/04/12 17:13:59;;;;;;;0.10;0.10;;;;;;;;;;5046518;28;20248;-69
2022/04/12 17:16:27;;;;;;;0.10;0.10;;;;;;;;;;5042644;28;20305;-68
2022/04/12 17:18:54;;;;;;;0.23;0.23;;;;;;;;;;5047187;28;20385;-66
2022/04/12 17:21:21;;;;;;;0.10;0.10;;;;;;;;;;5042033;28;20264;-72
2022/04/12 17:23:47;;;;;;;0.10;0.10;;;;;;;;;;5047659;28;20204;-76
2022/04/12 17:26:14;;;;;;;0.10;0.10;;;;;;;;;;5041076;28;20258;-74
2022/04/12 17:28:41;;;;;;;0.10;0.10;;;;;;;;;;5049161;28;20276;-73
2022/04/12 17:31:08;;;;;;;0.10;0.10;;;;;;;;;;5040217;28;20242;-71
2022/04/12 17:33:35;;;;;;;0.10;0.10;;;;;;;;;;5049766;28;20288;-71
2022/04/12 17:36:02;;;;;;;0.10;0.10;;;;;;;;;;5039455;28;20248;-72
2022/04/12 17:38:29;;;;;;;0.10;0.10;;;;;;;;;;5050550;28;20213;-71
2022/04/12 17:40:55;;;;;;;0.10;0.10;;;;;;;;;;5038641;28;20283;-70
2022/04/12 17:43:21;;;;;;;0.10;0.10;;;;;;;;;;5051158;28;20212;-70
2022/04/12 17:45:48;;;;;;;0.10;0.10;;;;;;;;;;5037679;28;20548;-71
2022/04/12 17:48:15;;;;;;;0.10;0.10;;;;;;;;;;5055084;28;20405;-78
2022/04/12 17:50:44;;;;;;;0.83;0.83;;;;;;;;;;5040776;28;20550;-73
2022/04/12 17:53:12;;;;;;;0.10;0.10;;;;;;;;;;5056726;28;20218;-74
2022/04/12 17:55:39;;;;;;;0.10;0.10;;;;;;;;;;5040138;28;20496;-73
2022/04/12 17:58:07;;;;;;;0.00;0.00;;;;;;;;;;5057116;28;20205;-72
2022/04/12 18:00:33;;;;;;;0.10;0.10;;;;;;;;;;5038838;28;20243;-72
2022/04/12 18:03:00;;;;;;;0.10;0.10;;;;;;;;;;5057847;28;20234;-66
2022/04/12 18:05:29;;;;;;;0.10;0.10;;;;;;;;;;5038294;28;20269;-64
2022/04/12 18:07:55;;;;;;;0.10;0.10;;;;;;;;;;5058571;28;20194;-68
2022/04/12 18:10:23;;;;;;;0.10;0.10;;;;;;;;;;5037599;28;20209;-74
2022/04/12 18:12:49;;;;;;;0.10;0.10;;;;;;;;;;5058398;28;20518;-72
2022/04/12 18:15:16;;;;;;;0.10;0.10;;;;;;;;;;5036945;28;20220;-70
2022/04/12 18:17:42;;;;;;;0.10;0.10;;;;;;;;;;5059715;28;20238;-74
2022/04/12 18:20:09;;;;;;;0.10;0.10;;;;;;;;;;5036044;28;20226;-76
2022/04/12 18:22:36;;;;;;;0.07;0.07;;;;;;;;;;5060355;28;20268;-77
2022/04/12 18:25:03;;;;;;;0.10;0.10;;;;;;;;;;5045571;28;20422;-76
2022/04/12 18:27:31;;;;;;;0.10;0.10;;;;;;;;;;5050475;28;20244;-76
2022/04/12 18:29:58;;;;;;;0.10;0.10;;;;;;;;;;5045741;28;20211;-77
2022/04/12 18:32:24;;;;;;;0.10;0.10;;;;;;;;;;5050655;28;20629;-77
2022/04/12 18:34:51;;;;;;;0.10;0.10;;;;;;;;;;5045758;28;20417;-78
2022/04/12 18:37:17;;;;;;;0.10;0.10;;;;;;;;;;5050718;28;20322;-77
2022/04/12 18:39:44;;;;;;;0.10;0.10;;;;;;;;;;5045264;28;20204;-78
2022/04/12 18:42:12;;;;;;;0.10;0.10;;;;;;;;;;5050744;28;20298;-78
2022/04/12 18:44:40;;;;;;;0.10;0.10;;;;;;;;;;5045172;28;20406;-79
2022/04/12 18:47:06;;;;;;;0.00;0.00;;;;;;;;;;5050598;28;20307;-77
2022/04/12 18:49:36;;;;;;;0.10;0.10;;;;;;;;;;5044920;28;20204;-77
2022/04/12 18:52:03;;;;;;;0.10;0.10;;;;;;;;;;5048919;28;20242;-78
2022/04/12 18:54:29;;;;;;;0.10;0.10;;;;;;;;;;5046606;28;20207;-78
2022/04/12 18:56:56;;;;;;;0.10;0.10;;;;;;;;;;5049206;28;20297;-77
2022/04/12 18:59:23;;;;;;;0.10;0.10;;;;;;;;;;5046422;28;20203;-78